createdAt,value
2018-12-06T00:21:31.991Z,49.30
2018-12-06T00:34:39.107Z,49.40
2018-12-06T00:47:46.256Z,49.50
2018-12-06T01:00:53.399Z,49.50
2018-12-06T01:14:00.530Z,49.60
2018-12-06T01:27:24.538Z,49.60
2018-12-06T01:40:47.337Z,49.80
2018-12-06T01:54:10.148Z,49.70
2018-12-06T02:07:32.973Z,49.80
2018-12-06T02:20:55.850Z,49.90
2018-12-06T02:34:18.603Z,49.90
2018-12-06T02:47:41.420Z,50.00
2018-12-06T03:01:04.234Z,50.10
2018-12-06T03:14:27.027Z,50.20
2018-12-06T03:27:49.853Z,50.20
2018-12-06T03:41:12.688Z,50.80
2018-12-06T03:54:35.514Z,50.30
2018-12-06T04:07:58.327Z,50.30
2018-12-06T04:21:21.141Z,50.30
2018-12-06T04:47:45.584Z,50.40
2018-12-06T05:00:52.703Z,50.40
2018-12-06T05:13:59.859Z,50.40
2018-12-06T05:27:07.028Z,50.50
2018-12-06T05:40:14.183Z,50.50
2018-12-06T05:53:21.354Z,50.50
2018-12-06T06:06:45.356Z,50.50
2018-12-06T06:20:08.204Z,50.50
2018-12-06T06:33:30.979Z,50.40
2018-12-06T06:46:53.840Z,50.60
2018-12-06T07:00:16.649Z,50.50
2018-12-06T07:13:39.447Z,50.60
2018-12-06T07:27:02.237Z,50.00
2018-12-06T07:40:25.171Z,48.60
2018-12-06T07:53:47.891Z,49.00
2018-12-06T08:07:10.704Z,49.40
2018-12-06T08:20:33.515Z,49.40
2018-12-06T08:46:57.983Z,50.10
2018-12-06T09:00:05.121Z,50.40
2018-12-06T09:13:12.289Z,50.50
2018-12-06T09:26:19.448Z,46.50
2018-12-06T09:39:26.582Z,44.70
2018-12-06T09:52:33.728Z,46.20
2018-12-06T10:05:57.770Z,46.60
2018-12-06T10:19:20.585Z,46.90
2018-12-06T10:32:43.361Z,47.00
2018-12-06T10:46:06.208Z,47.10
2018-12-06T10:59:29.006Z,47.30
2018-12-06T11:12:51.805Z,47.80
2018-12-06T11:39:16.328Z,48.20
2018-12-06T11:52:23.501Z,48.40
2018-12-06T12:05:30.646Z,48.50
2018-12-06T12:18:37.823Z,48.60
2018-12-06T12:31:44.953Z,48.70
2018-12-06T12:44:52.116Z,48.80
2018-12-06T12:58:16.047Z,49.20
2018-12-06T13:11:38.866Z,49.50
2018-12-06T13:25:01.700Z,49.70
2018-12-06T13:38:24.501Z,49.90
2018-12-06T13:51:47.351Z,50.10
2018-12-06T14:05:10.142Z,49.90
2018-12-06T14:18:32.947Z,50.20
2018-12-06T14:31:55.804Z,51.20
2018-12-06T14:45:18.814Z,51.20
2018-12-06T14:58:41.390Z,50.70
2018-12-06T15:12:04.190Z,50.80
2018-12-06T15:25:27.047Z,51.10
2018-12-06T15:38:49.919Z,51.40
2018-12-06T15:52:12.624Z,51.70
2018-12-06T16:05:35.511Z,51.60
2018-12-06T16:18:58.327Z,51.50
2018-12-06T16:45:22.791Z,52.00
2018-12-06T16:58:29.961Z,51.80
2018-12-06T17:11:37.158Z,52.10
2018-12-06T17:24:44.281Z,52.00
2018-12-06T17:37:51.478Z,52.00
2018-12-06T17:50:58.669Z,52.10
2018-12-06T18:04:22.952Z,51.90
2018-12-06T18:17:45.367Z,51.70
2018-12-06T18:31:08.149Z,51.90
2018-12-06T18:44:30.959Z,51.80
2018-12-06T18:57:53.787Z,52.60
2018-12-06T19:11:16.687Z,52.00
2018-12-06T19:24:39.382Z,52.90
2018-12-06T19:38:02.372Z,52.90
2018-12-06T19:51:25.071Z,52.50
2018-12-06T20:04:47.857Z,52.20
2018-12-06T20:18:10.668Z,52.10
2018-12-06T20:31:33.516Z,52.00
2018-12-06T20:44:56.274Z,52.00
2018-12-06T21:11:20.962Z,52.10
2018-12-06T21:24:28.112Z,52.20
2018-12-06T21:37:35.624Z,52.20
2018-12-06T22:03:46.695Z,52.30
2018-12-06T22:16:54.034Z,52.40
2018-12-06T22:30:01.274Z,53.10
2018-12-06T22:43:08.423Z,52.50
2018-12-06T22:56:15.587Z,52.50
2018-12-06T23:09:22.769Z,52.60
2018-12-06T23:22:46.320Z,52.70
2018-12-06T23:36:09.087Z,52.80
2018-12-06T23:49:31.868Z,52.90
